createdAt,value
2018-08-19T00:03:55.584Z,25.7
2018-08-19T00:08:53.469Z,25.8
2018-08-19T00:13:51.613Z,25.3
2018-08-19T00:18:49.623Z,25.7
2018-08-19T00:23:47.746Z,25.1
2018-08-19T00:28:45.651Z,25.6
2018-08-19T00:33:43.305Z,25.6
2018-08-19T00:38:41.172Z,25.6
2018-08-19T00:43:39.082Z,25.5
2018-08-19T00:48:36.748Z,25.5
2018-08-19T00:53:34.665Z,25.5
2018-08-19T00:58:32.509Z,25.4
2018-08-19T01:03:30.433Z,25.4
2018-08-19T01:08:28.373Z,25.3
2018-08-19T01:13:26.160Z,25.3
2018-08-19T01:18:24.114Z,25.3
2018-08-19T01:23:22.203Z,24.8
2018-08-19T01:28:20.116Z,24.7
2018-08-19T01:33:18.018Z,25.1
2018-08-19T01:38:15.858Z,25.1
2018-08-19T01:43:13.896Z,24.6
2018-08-19T01:48:11.886Z,25
2018-08-19T01:53:09.980Z,25
2018-08-19T01:58:07.367Z,25
2018-08-19T02:03:05.402Z,24.9
2018-08-19T02:08:03.200Z,24.9
2018-08-19T02:13:01.024Z,24.9
2018-08-19T02:17:59.091Z,24.8
2018-08-19T02:22:56.676Z,24.8
2018-08-19T02:27:54.662Z,24.8
2018-08-19T02:32:52.552Z,24.7
2018-08-19T02:37:50.488Z,24.2
2018-08-19T02:42:48.489Z,24.7
2018-08-19T02:47:46.434Z,24.6
2018-08-19T02:52:44.372Z,24.1
2018-08-19T02:57:42.418Z,24.5
2018-08-19T03:02:40.542Z,24.1
2018-08-19T03:07:38.437Z,24
2018-08-19T03:12:36.101Z,24.4
2018-08-19T03:17:33.967Z,24.4
2018-08-19T03:22:31.547Z,24.4
2018-08-19T03:27:29.541Z,24.4
2018-08-19T03:32:27.349Z,24.3
2018-08-19T03:37:25.260Z,23.8
2018-08-19T03:42:23.018Z,24.2
2018-08-19T03:47:20.817Z,24.2
2018-08-19T03:52:18.852Z,24.2
2018-08-19T03:57:16.567Z,24.1
2018-08-19T04:02:14.708Z,24.1
2018-08-19T04:07:12.271Z,24.1
2018-08-19T04:12:10.155Z,23.6
2018-08-19T04:17:08.037Z,24.1
2018-08-19T04:22:05.942Z,23.6
2018-08-19T04:27:03.745Z,24.1
2018-08-19T04:32:01.601Z,24.1
2018-08-19T04:36:59.303Z,24.1
2018-08-19T04:41:57.264Z,24.1
2018-08-19T04:46:55.206Z,24.1
2018-08-19T04:51:53.075Z,23.6
2018-08-19T04:56:51.193Z,24
2018-08-19T05:01:49.290Z,23.6
2018-08-19T05:06:47.101Z,24
2018-08-19T05:11:45.221Z,23.9
2018-08-19T05:16:43.071Z,23.9
2018-08-19T05:21:41.029Z,23.9
2018-08-19T05:26:39.014Z,23.9
2018-08-19T05:31:37.097Z,23.9
2018-08-19T05:36:35.090Z,23.8
2018-08-19T05:41:32.841Z,23.8
2018-08-19T05:46:30.852Z,23.4
2018-08-19T05:51:28.808Z,23.8
2018-08-19T05:56:26.910Z,23.3
2018-08-19T06:01:24.425Z,23.8
2018-08-19T06:06:22.316Z,23.8
2018-08-19T06:11:19.630Z,23.8
2018-08-19T06:16:17.678Z,23.8
2018-08-19T06:21:15.792Z,23.8
2018-08-19T06:26:13.847Z,23.8
2018-08-19T06:31:11.132Z,23.8
2018-08-19T06:36:09.072Z,23.8
2018-08-19T06:41:07.135Z,23.9
2018-08-19T06:46:05.045Z,23.9
2018-08-19T06:51:02.999Z,23.9
2018-08-19T06:56:01.010Z,23.9
2018-08-19T07:00:58.780Z,24
2018-08-19T07:05:56.323Z,24
2018-08-19T07:10:54.237Z,24
2018-08-19T07:15:51.804Z,23.6
2018-08-19T07:20:49.652Z,24.1
2018-08-19T07:25:47.529Z,24.1
2018-08-19T07:30:45.755Z,23.7
2018-08-19T07:35:43.155Z,24.2
2018-08-19T07:40:41.153Z,24.3
2018-08-19T07:45:39.014Z,24.3
2018-08-19T07:50:37.051Z,24.2
2018-08-19T07:55:35.064Z,24.4
2018-08-19T08:00:33.380Z,24
2018-08-19T08:05:31.548Z,24.5
2018-08-19T08:10:29.617Z,24.6
2018-08-19T08:15:28.684Z,24.7
2018-08-19T08:20:28.225Z,24.3
2018-08-19T08:25:26.327Z,24.8
2018-08-19T08:30:24.072Z,24.9
2018-08-19T08:35:22.048Z,24.8
2018-08-19T08:40:20.627Z,25
2018-08-19T08:45:19.120Z,25.1
2018-08-19T08:50:17.255Z,25.1
2018-08-19T08:55:15.343Z,25.2
2018-08-19T09:00:13.359Z,25.3
2018-08-19T09:05:11.411Z,25.3
2018-08-19T09:10:09.419Z,25.4
2018-08-19T09:15:07.722Z,25.5
2018-08-19T09:20:06.180Z,25.6
2018-08-19T09:25:04.272Z,25.6
2018-08-19T09:30:02.416Z,25.7
2018-08-19T09:35:00.514Z,25.8
2018-08-19T09:39:58.603Z,25.8
2018-08-19T09:44:56.651Z,25.9
2018-08-19T09:49:54.413Z,26
2018-08-19T09:54:52.548Z,26
2018-08-19T09:59:50.715Z,25.6
2018-08-19T10:04:48.774Z,26.1
2018-08-19T10:09:46.852Z,26.2
2018-08-19T10:14:45.079Z,26.2
2018-08-19T10:19:43.391Z,26.3
2018-08-19T10:24:41.696Z,26.3
2018-08-19T10:29:40.199Z,25.9
2018-08-19T10:34:38.176Z,26.4
2018-08-19T10:39:36.337Z,26.4
2018-08-19T10:44:34.723Z,26.5
2018-08-19T10:49:32.716Z,26.5
2018-08-19T10:54:30.922Z,26.6
2018-08-19T10:59:29.026Z,26.6
2018-08-19T11:04:27.007Z,26.7
2018-08-19T11:09:24.967Z,26.7
2018-08-19T11:14:22.876Z,26.8
2018-08-19T11:19:20.936Z,26.8
2018-08-19T11:24:19.078Z,26.9
2018-08-19T11:29:17.087Z,26.5
2018-08-19T11:34:15.107Z,27
2018-08-19T11:39:13.060Z,27
2018-08-19T11:44:11.186Z,27.1
2018-08-19T11:49:09.160Z,26.6
2018-08-19T11:54:07.308Z,27.2
2018-08-19T11:59:05.404Z,26.7
2018-08-19T12:04:03.488Z,26.7
2018-08-19T12:09:01.419Z,27.4
2018-08-19T12:13:59.679Z,27.5
2018-08-19T12:18:57.586Z,27.6
2018-08-19T12:23:55.234Z,27.6
2018-08-19T12:28:53.504Z,27.7
2018-08-19T12:33:51.037Z,27.8
2018-08-19T12:38:49.073Z,27.7
2018-08-19T12:43:46.994Z,27.9
2018-08-19T12:48:44.907Z,28
2018-08-19T12:53:43.226Z,28.1
2018-08-19T12:58:41.441Z,28.1
2018-08-19T13:03:40.214Z,28.2
2018-08-19T13:08:38.744Z,28.3
2018-08-19T13:13:37.032Z,28.3
2018-08-19T13:18:34.962Z,28.4
2018-08-19T13:23:32.568Z,28.4
2018-08-19T13:28:30.682Z,28.5
2018-08-19T13:33:28.673Z,28.5
2018-08-19T13:38:26.967Z,28.6
2018-08-19T13:43:25.541Z,28.6
2018-08-19T13:48:23.647Z,28.7
2018-08-19T13:53:21.414Z,28.7
2018-08-19T13:58:19.540Z,28.8
2018-08-19T14:03:17.808Z,28.8
2018-08-19T14:08:15.710Z,28.9
2018-08-19T14:13:13.706Z,28.9
2018-08-19T14:18:11.746Z,29
2018-08-19T14:23:09.399Z,29
2018-08-19T14:28:07.405Z,29.1
2018-08-19T14:33:05.394Z,29.1
2018-08-19T14:38:03.301Z,29.1
2018-08-19T14:43:01.322Z,29.1
2018-08-19T14:47:59.501Z,29.2
2018-08-19T14:52:57.474Z,29.2
2018-08-19T14:57:55.414Z,29.2
2018-08-19T15:02:53.231Z,29.2
2018-08-19T15:07:51.179Z,29.1
2018-08-19T15:12:49.387Z,29.3
2018-08-19T15:17:47.112Z,29.3
2018-08-19T15:22:44.623Z,29.3
2018-08-19T15:27:42.665Z,29.4
2018-08-19T15:32:40.962Z,29.4
2018-08-19T15:37:39.519Z,29.4
2018-08-19T15:42:37.500Z,29.4
2018-08-19T15:47:35.621Z,29.4
2018-08-19T15:52:33.712Z,29.5
2018-08-19T15:57:31.759Z,29.5
2018-08-19T16:02:29.885Z,29.5
2018-08-19T16:07:27.994Z,29.5
2018-08-19T16:12:26.041Z,29.5
2018-08-19T16:17:23.877Z,29.5
2018-08-19T16:22:21.871Z,29.6
2018-08-19T16:27:20.012Z,29.4
2018-08-19T16:32:17.688Z,29.6
2018-08-19T16:37:15.705Z,29.6
2018-08-19T16:42:13.835Z,29.6
2018-08-19T16:47:11.840Z,29.6
2018-08-19T16:52:09.813Z,29.6
2018-08-19T16:57:07.827Z,29.5
2018-08-19T17:02:06.036Z,29.5
2018-08-19T17:07:04.079Z,29.5
2018-08-19T17:12:01.932Z,29.5
2018-08-19T17:17:00.017Z,29.4
2018-08-19T17:21:58.006Z,29.4
2018-08-19T17:26:56.027Z,29.4
2018-08-19T17:31:54.259Z,29.4
2018-08-19T17:36:52.762Z,29.4
2018-08-19T17:41:51.244Z,29.3
2018-08-19T17:46:49.473Z,29.3
2018-08-19T17:51:47.680Z,29.3
2018-08-19T17:56:45.754Z,29.3
2018-08-19T18:01:43.761Z,29.2
2018-08-19T18:06:41.661Z,29.2
2018-08-19T18:11:39.155Z,29.2
2018-08-19T18:16:37.065Z,29.2
2018-08-19T18:21:35.303Z,29.1
2018-08-19T18:26:33.885Z,29.1
2018-08-19T18:31:32.021Z,29.1
2018-08-19T18:36:29.967Z,29
2018-08-19T18:41:27.573Z,29
2018-08-19T18:46:25.792Z,29
2018-08-19T18:51:23.790Z,28.9
2018-08-19T18:56:21.814Z,28.9
2018-08-19T19:01:19.843Z,28.9
2018-08-19T19:06:17.756Z,28.8
2018-08-19T19:11:15.609Z,28.8
2018-08-19T19:16:13.750Z,28.7
2018-08-19T19:21:11.926Z,28.1
2018-08-19T19:26:09.952Z,28.7
2018-08-19T19:31:09.359Z,28.6
2018-08-19T19:36:08.216Z,28.6
2018-08-19T19:41:06.173Z,28.5
2018-08-19T19:46:04.409Z,28.5
2018-08-19T19:51:02.112Z,28.4
2018-08-19T19:56:00.336Z,28.4
2018-08-19T20:00:58.348Z,28.1
2018-08-19T20:05:55.931Z,28.3
2018-08-19T20:10:54.166Z,27.7
2018-08-19T20:15:51.980Z,28.2
2018-08-19T20:20:50.098Z,28.2
2018-08-19T20:25:47.855Z,28.1
2018-08-19T20:30:45.906Z,28.1
2018-08-19T20:35:44.993Z,27.4
2018-08-19T20:40:43.275Z,28
2018-08-19T20:45:40.769Z,27.9
2018-08-19T20:50:38.606Z,27.9
2018-08-19T20:55:36.484Z,27.8
2018-08-19T21:00:34.339Z,27.8
2018-08-19T21:05:32.150Z,27.7
2018-08-19T21:10:30.048Z,27.7
2018-08-19T21:15:28.147Z,27.6
2018-08-19T21:20:26.098Z,27.6
2018-08-19T21:25:24.092Z,27.5
2018-08-19T21:30:21.982Z,27.5
2018-08-19T21:35:20.037Z,27.5
2018-08-19T21:40:18.067Z,27.4
2018-08-19T21:45:16.064Z,27
2018-08-19T21:50:14.027Z,26.9
2018-08-19T21:55:11.558Z,27.3
2018-08-19T22:00:09.609Z,27.2
2018-08-19T22:05:07.465Z,27.2
2018-08-19T22:10:05.822Z,27.1
2018-08-19T22:15:03.917Z,27.1
2018-08-19T22:20:01.851Z,27
2018-08-19T22:24:59.981Z,27
2018-08-19T22:29:57.829Z,27
2018-08-19T22:34:55.640Z,26.9
2018-08-19T22:39:53.590Z,26.9
2018-08-19T22:44:51.828Z,26.3
2018-08-19T22:49:49.689Z,26.8
2018-08-19T22:54:47.472Z,26.7
2018-08-19T22:59:45.150Z,26.7
2018-08-19T23:04:43.086Z,26.6
2018-08-19T23:09:40.820Z,26.6
2018-08-19T23:14:38.898Z,26.6
2018-08-19T23:19:36.594Z,26.5
2018-08-19T23:24:34.525Z,26.5
2018-08-19T23:29:32.530Z,26
2018-08-19T23:34:30.593Z,26.4
2018-08-19T23:39:28.632Z,26.3
2018-08-19T23:44:26.612Z,26.3
2018-08-19T23:49:24.837Z,25.8
2018-08-19T23:54:22.802Z,26.2
2018-08-19T23:59:20.654Z,26.2
